메인 페이지
METAR-TAF:

METAR-TAF

공항 :

주노, 알래스카, 미국

위도: 58-21-17N, 경도: 134-34-34W, 고도: 6m

현재 날씨관측

예보는 58분 전, 18:53시(UTC)에 발표되었습니다.
무풍
온도 2°C
습도 100%
기압 1006 hPa
시정: 11.3km
고도 300ft 상공 구름 조금
고도 1300ft 상공 구름 조금
고도 3500ft 상공 흐림
약한비

METAR: PAJN 121853Z 00000KT 7SM -RA FEW003 FEW013 OVC035 02/02 A2970 RMK AO2 SLP058 P0001 T00170017

시각: 10:51 (19:51 UTC)

예보

예보는 2 시간 22분 전, 17:29시(UTC)에 발표되었습니다.
예보 대상 시간: 12일 18시부터 13일 18시까지 (UTC)
여러 방향의 바람 3kt
시정: 9.7km
고도 500ft 상공 구름 보통
고도 3500ft 상공 흐림
약한비, 박무
일시적
12일 18시부터 12일 22시까지 (UTC)
시정: 8.0km
고도 500ft 상공 구름 보통
고도 2500ft 상공 구름 많음
고도 3500ft 상공 흐림
약한비, 눈, 박무
12일 2200시부터 (UTC)
6kt
시정: 8.0km
고도 1500ft 상공 구름 보통
고도 2500ft 상공 흐림
약한비, 박무
13일 1200시부터 (UTC)
9kt
시정: 9.7km
고도 1500ft 상공 구름 보통
고도 2500ft 상공 흐림
약한비, 박무

TAF: PAJN 121729Z 1218/1318 VRB03KT 6SM -RA BR SCT005 OVC035 TEMPO 1218/1222 5SM -RASN BR SCT005 BKN025 OVC035 FM122200 08006KT 5SM -RA BR SCT015 OVC025 FM131200 10009KT 6SM -RA BR SCT015 OVC025

4,000개 이상의 공항 관측 자료 및 예보 (METAR 및 TAF 보고).

지도상에서 검색 가능한 기상관측소가 노란 점과 빨간 점으로 표시되어 있습니다.

기상관측소 명을 보려면 표시 위로 마우스를 이동하세요.

날씨 관측과 예보를 보려면 클릭하세요.

지도 변경 : 확대하려면 엑스 표시가 있는 녹색 버튼, 축소하려면 빼기 표시가 있는 녹색 버튼, 다음 페이지의 지도를 보려면 녹색 화살표를 클릭하세요.


METAR-TAF: